createdAt,value
2018-08-24T00:00:00.128Z,3.27
2018-08-24T00:02:28.552Z,4.97
2018-08-24T00:04:56.960Z,3.50
2018-08-24T00:07:25.412Z,6.10
2018-08-24T00:09:53.804Z,2.60
2018-08-24T00:12:22.215Z,3.70
2018-08-24T00:14:50.636Z,3.00
2018-08-24T00:17:24.296Z,3.07
2018-08-24T00:19:52.737Z,4.43
2018-08-24T00:22:21.127Z,3.30
2018-08-24T00:24:49.545Z,3.33
2018-08-24T00:27:17.961Z,3.30
2018-08-24T00:29:46.432Z,3.20
2018-08-24T00:32:14.828Z,2.77
2018-08-24T00:34:43.240Z,4.40
2018-08-24T00:37:11.637Z,3.90
2018-08-24T00:39:42.899Z,3.60
2018-08-24T00:42:11.678Z,3.13
2018-08-24T00:44:40.530Z,3.57
2018-08-24T00:47:08.976Z,3.30
2018-08-24T00:49:37.420Z,3.10
2018-08-24T00:52:05.871Z,3.10
2018-08-24T00:54:34.277Z,3.00
2018-08-24T00:57:02.708Z,3.20
2018-08-24T00:59:31.130Z,3.40
2018-08-24T01:01:59.549Z,2.40
2018-08-24T01:04:36.036Z,4.27
2018-08-24T01:07:09.964Z,3.03
2018-08-24T01:09:39.244Z,3.30
2018-08-24T01:12:14.714Z,3.40
2018-08-24T01:14:45.064Z,2.57
2018-08-24T01:17:18.938Z,2.07
2018-08-24T01:19:47.612Z,2.73
2018-08-24T01:22:16.316Z,2.63
2018-08-24T01:24:44.786Z,2.60
2018-08-24T01:27:13.211Z,2.60
2018-08-24T01:29:42.675Z,3.63
2018-08-24T01:32:11.086Z,2.67
2018-08-24T01:34:39.536Z,3.03
2018-08-24T01:37:07.998Z,2.80
2018-08-24T01:39:36.400Z,2.80
2018-08-24T01:42:04.901Z,2.30
2018-08-24T01:44:33.335Z,3.57
2018-08-24T01:47:01.769Z,2.30
2018-08-24T01:49:30.171Z,2.70
2018-08-24T01:51:58.593Z,2.73
2018-08-24T01:54:27.007Z,2.70
2018-08-24T01:56:55.412Z,2.67
2018-08-24T01:59:23.868Z,2.37
2018-08-24T02:01:52.276Z,2.67
2018-08-24T02:04:20.664Z,2.80
2018-08-24T02:06:49.115Z,2.13
2018-08-24T02:09:21.655Z,2.27
2018-08-24T02:11:50.506Z,1.93
2018-08-24T02:14:24.327Z,2.70
2018-08-24T02:16:52.785Z,2.37
2018-08-24T02:20:25.211Z,3.87
2018-08-24T02:22:58.271Z,2.80
2018-08-24T02:25:26.993Z,3.80
2018-08-24T02:27:55.712Z,2.90
2018-08-24T02:30:24.172Z,2.60
2018-08-24T02:32:52.584Z,3.00
2018-08-24T02:35:21.025Z,3.10
2018-08-24T02:37:51.067Z,2.17
2018-08-24T02:40:19.504Z,2.33
2018-08-24T02:42:48.491Z,3.20
2018-08-24T02:45:17.369Z,2.70
2018-08-24T02:47:45.800Z,2.73
2018-08-24T02:50:14.321Z,1.73
2018-08-24T02:52:42.760Z,2.23
2018-08-24T02:55:11.175Z,2.50
2018-08-24T02:57:39.624Z,2.60
2018-08-24T03:00:08.065Z,2.33
2018-08-24T03:02:36.490Z,3.03
2018-08-24T03:05:05.042Z,2.40
2018-08-24T03:07:33.495Z,3.13
2018-08-24T03:10:01.937Z,3.80
2018-08-24T03:12:30.332Z,4.30
2018-08-24T03:14:58.955Z,5.20
2018-08-24T03:17:32.656Z,5.30
2018-08-24T03:20:01.102Z,4.67
2018-08-24T03:22:29.556Z,6.00
2018-08-24T03:24:57.983Z,6.60
2018-08-24T03:27:26.364Z,7.30
2018-08-24T03:29:54.828Z,5.63
2018-08-24T03:32:23.273Z,5.40
2018-08-24T03:37:42.340Z,6.37
2018-08-24T03:40:10.800Z,5.50
2018-08-24T03:42:39.229Z,6.10
2018-08-24T03:45:07.708Z,6.47
2018-08-24T03:47:36.183Z,7.13
2018-08-24T03:50:04.684Z,7.30
2018-08-24T03:52:33.125Z,7.60
2018-08-24T03:55:01.556Z,9.03
2018-08-24T03:57:30.002Z,9.60
2018-08-24T03:59:58.459Z,10.67
2018-08-24T04:02:26.889Z,8.90
2018-08-24T04:04:55.387Z,7.33
2018-08-24T04:07:23.824Z,7.00
2018-08-24T04:09:52.264Z,6.03
2018-08-24T04:12:20.691Z,6.60
2018-08-24T04:14:49.117Z,7.27
2018-08-24T04:17:22.820Z,7.63
2018-08-24T04:19:51.284Z,8.17
2018-08-24T04:22:19.715Z,6.00
2018-08-24T04:24:48.144Z,7.40
2018-08-24T04:27:16.628Z,7.73
2018-08-24T04:29:45.061Z,8.27
2018-08-24T04:32:13.503Z,11.37
2018-08-24T04:34:41.943Z,8.73
2018-08-24T04:37:10.396Z,7.17
2018-08-24T04:39:38.846Z,8.93
2018-08-24T04:42:07.272Z,9.70
2018-08-24T04:44:35.715Z,8.37
2018-08-24T04:47:04.151Z,13.30
2018-08-24T04:49:32.652Z,8.87
2018-08-24T04:52:01.072Z,10.33
2018-08-24T04:54:29.548Z,8.40
2018-08-24T04:56:57.971Z,7.13
2018-08-24T04:59:26.425Z,8.60
2018-08-24T05:01:54.840Z,6.70
2018-08-24T05:04:23.296Z,6.87
2018-08-24T05:06:51.717Z,5.83
2018-08-24T05:09:20.169Z,5.70
2018-08-24T05:11:48.608Z,5.67
2018-08-24T05:14:17.124Z,5.70
2018-08-24T05:16:45.544Z,6.47
2018-08-24T05:19:13.991Z,6.37
2018-08-24T05:21:42.448Z,6.17
2018-08-24T05:24:10.916Z,8.60
2018-08-24T05:26:39.328Z,8.60
2018-08-24T05:29:07.755Z,7.40
2018-08-24T05:31:36.247Z,8.60
2018-08-24T05:34:04.784Z,7.60
2018-08-24T05:36:33.212Z,10.40
2018-08-24T05:39:01.636Z,8.53
2018-08-24T05:41:30.183Z,8.40
2018-08-24T05:43:58.540Z,9.50
2018-08-24T05:46:26.980Z,7.07
2018-08-24T05:48:55.497Z,8.93
2018-08-24T05:51:23.883Z,7.10
2018-08-24T05:53:52.303Z,7.13
2018-08-24T05:56:20.759Z,6.03
2018-08-24T05:58:49.188Z,6.93
2018-08-24T06:01:17.694Z,10.90
2018-08-24T06:03:46.136Z,9.97
2018-08-24T06:06:14.584Z,11.10
2018-08-24T06:08:43.027Z,9.90
2018-08-24T06:11:11.466Z,7.53
2018-08-24T06:13:39.865Z,7.63
2018-08-24T06:16:08.371Z,9.00
2018-08-24T06:18:36.828Z,10.23
2018-08-24T06:21:05.276Z,8.47
2018-08-24T06:23:33.705Z,8.70
2018-08-24T06:26:02.159Z,10.20
2018-08-24T06:28:30.598Z,8.33
2018-08-24T06:30:59.071Z,10.17
2018-08-24T06:33:27.493Z,10.17
2018-08-24T06:35:55.932Z,10.27
2018-08-24T06:38:24.388Z,13.43
2018-08-24T06:40:52.858Z,12.30
2018-08-24T06:43:21.300Z,17.93
2018-08-24T06:45:49.747Z,14.63
2018-08-24T06:48:18.188Z,14.50
2018-08-24T06:50:46.620Z,17.23
2018-08-24T06:53:15.270Z,17.20
2018-08-24T06:55:43.549Z,18.77
2018-08-24T06:58:12.028Z,18.30
2018-08-24T07:00:40.492Z,17.43
2018-08-24T07:03:08.976Z,23.30
2018-08-24T07:05:37.516Z,15.37
2018-08-24T07:08:05.918Z,17.63
2018-08-24T07:10:34.380Z,16.60
2018-08-24T07:13:02.917Z,17.37
2018-08-24T07:15:31.304Z,19.30
2018-08-24T07:18:00.595Z,16.97
2018-08-24T07:20:29.302Z,17.30
2018-08-24T07:22:57.776Z,17.00
2018-08-24T07:25:26.248Z,15.73
2018-08-24T07:27:54.713Z,19.63
2018-08-24T07:30:23.214Z,16.43
2018-08-24T07:32:51.644Z,17.77
2018-08-24T07:35:20.095Z,18.10
2018-08-24T07:37:48.577Z,15.50
2018-08-24T07:40:18.052Z,18.27
2018-08-24T07:42:46.536Z,14.67
2018-08-24T07:45:15.092Z,13.47
2018-08-24T07:47:43.539Z,16.00
2018-08-24T07:50:12.067Z,15.60
2018-08-24T07:52:40.523Z,16.47
2018-08-24T07:55:09.039Z,15.63
2018-08-24T07:57:37.474Z,15.47
2018-08-24T08:00:06.443Z,16.67
2018-08-24T08:02:40.276Z,14.87
2018-08-24T08:05:08.722Z,16.10
2018-08-24T08:07:37.173Z,17.43
2018-08-24T08:10:06.468Z,16.10
2018-08-24T08:12:34.952Z,19.60
2018-08-24T08:15:11.377Z,13.90
2018-08-24T08:17:41.996Z,12.13
2018-08-24T08:20:10.909Z,13.07
2018-08-24T08:22:39.358Z,12.97
2018-08-24T08:25:07.841Z,11.30
2018-08-24T08:27:36.271Z,9.83
2018-08-24T08:30:05.838Z,9.27
2018-08-24T08:32:34.305Z,9.40
2018-08-24T08:35:02.739Z,7.50
2018-08-24T08:37:31.156Z,8.00
2018-08-24T08:40:00.879Z,7.87
2018-08-24T08:42:29.590Z,7.63
2018-08-24T08:44:58.391Z,7.90
2018-08-24T08:47:26.843Z,7.33
2018-08-24T08:49:55.289Z,7.17
2018-08-24T08:52:23.732Z,6.40
2018-08-24T08:54:52.392Z,5.20
2018-08-24T08:57:20.894Z,4.87
2018-08-24T08:59:49.573Z,5.00
2018-08-24T09:02:18.004Z,3.90
2018-08-24T09:04:46.444Z,4.47
2018-08-24T09:07:14.892Z,4.00
2018-08-24T09:09:43.361Z,4.13
2018-08-24T09:12:11.765Z,4.57
2018-08-24T09:14:40.221Z,5.13
2018-08-24T09:17:13.984Z,3.70
2018-08-24T09:19:47.773Z,4.87
2018-08-24T09:22:21.535Z,3.83
2018-08-24T09:24:55.190Z,3.40
2018-08-24T09:28:32.732Z,3.87
2018-08-24T09:31:05.107Z,5.27
2018-08-24T09:33:33.640Z,3.80
2018-08-24T09:36:06.281Z,3.63
2018-08-24T09:38:34.760Z,3.70
2018-08-24T09:41:03.165Z,3.90
2018-08-24T09:43:36.951Z,5.30
2018-08-24T09:46:33.572Z,3.37
2018-08-24T09:49:07.414Z,3.90
2018-08-24T09:51:35.812Z,2.87
2018-08-24T09:54:05.664Z,2.33
2018-08-24T09:56:35.051Z,2.47
2018-08-24T09:59:03.556Z,2.83
2018-08-24T10:01:37.323Z,2.53
2018-08-24T10:04:11.186Z,2.63
2018-08-24T10:06:45.043Z,2.50
2018-08-24T10:09:14.650Z,4.50
2018-08-24T10:11:43.248Z,3.60
2018-08-24T10:14:12.156Z,2.53
2018-08-24T10:16:40.687Z,3.20
2018-08-24T10:19:14.160Z,4.73
2018-08-24T10:21:42.576Z,3.20
2018-08-24T10:24:11.212Z,3.50
2018-08-24T10:26:40.082Z,6.27
2018-08-24T10:29:08.908Z,4.83
2018-08-24T10:31:37.659Z,4.50
2018-08-24T10:34:06.243Z,3.40
2018-08-24T10:36:34.688Z,4.00
2018-08-24T10:39:03.385Z,3.67
2018-08-24T10:41:31.743Z,5.27
2018-08-24T10:44:00.173Z,4.77
2018-08-24T10:46:28.629Z,4.07
2018-08-24T10:48:57.101Z,4.97
2018-08-24T10:51:25.586Z,5.03
2018-08-24T10:53:54.016Z,11.07
2018-08-24T10:56:22.440Z,5.27
2018-08-24T10:58:50.901Z,3.80
2018-08-24T11:01:19.321Z,4.00
2018-08-24T11:03:47.806Z,4.57
2018-08-24T11:06:16.183Z,5.77
2018-08-24T11:08:44.579Z,7.50
2018-08-24T11:11:13.021Z,5.13
2018-08-24T11:13:41.436Z,10.17
2018-08-24T11:16:09.851Z,6.20
2018-08-24T11:18:38.270Z,5.00
2018-08-24T11:21:06.716Z,4.93
2018-08-24T11:23:35.124Z,5.37
2018-08-24T11:26:03.571Z,5.70
2018-08-24T11:28:31.996Z,5.30
2018-08-24T11:31:00.445Z,6.10
2018-08-24T11:33:28.879Z,5.40
2018-08-24T11:35:57.369Z,5.53
2018-08-24T11:38:25.777Z,3.87
2018-08-24T11:40:54.212Z,4.50
2018-08-24T11:43:22.658Z,5.07
2018-08-24T11:45:51.088Z,6.57
2018-08-24T11:48:19.512Z,6.00
2018-08-24T11:50:47.936Z,5.07
2018-08-24T11:53:16.408Z,4.47
2018-08-24T11:55:44.861Z,5.60
2018-08-24T11:58:13.640Z,6.00
2018-08-24T12:00:42.096Z,5.40
2018-08-24T12:03:10.528Z,5.23
2018-08-24T12:05:38.932Z,6.43
2018-08-24T12:08:07.569Z,7.67
2018-08-24T12:10:35.803Z,6.00
2018-08-24T12:13:04.259Z,4.30
2018-08-24T12:15:33.183Z,5.93
2018-08-24T12:18:01.670Z,4.70
2018-08-24T12:20:30.104Z,6.93
2018-08-24T12:22:58.556Z,4.83
2018-08-24T12:25:27.011Z,6.67
2018-08-24T12:27:55.483Z,9.50
2018-08-24T12:30:23.907Z,5.23
2018-08-24T12:32:52.343Z,7.60
2018-08-24T12:35:20.760Z,7.90
2018-08-24T12:37:50.056Z,5.40
2018-08-24T12:40:18.514Z,4.87
2018-08-24T12:42:46.977Z,5.33
2018-08-24T12:45:15.427Z,7.33
2018-08-24T12:47:43.864Z,6.03
2018-08-24T12:50:12.297Z,8.40
2018-08-24T12:52:40.732Z,5.90
2018-08-24T12:55:09.209Z,5.33
2018-08-24T12:57:37.650Z,5.40
2018-08-24T13:00:06.169Z,5.93
2018-08-24T13:02:34.589Z,7.53
2018-08-24T13:05:03.071Z,6.30
2018-08-24T13:07:31.513Z,7.20
2018-08-24T13:10:00.010Z,4.70
2018-08-24T13:12:28.429Z,6.00
2018-08-24T13:14:56.913Z,4.97
2018-08-24T13:17:25.320Z,5.93
2018-08-24T13:19:53.758Z,4.93
2018-08-24T13:22:22.189Z,7.57
2018-08-24T13:24:50.628Z,6.13
2018-08-24T13:27:19.102Z,6.33
2018-08-24T13:29:47.500Z,6.10
2018-08-24T13:32:15.946Z,6.20
2018-08-24T13:34:44.356Z,6.10
2018-08-24T13:37:12.839Z,7.93
2018-08-24T13:39:41.234Z,5.90
2018-08-24T13:42:09.741Z,7.50
2018-08-24T13:44:38.148Z,5.90
2018-08-24T13:47:07.211Z,4.77
2018-08-24T13:49:35.929Z,6.93
2018-08-24T13:52:04.841Z,6.83
2018-08-24T13:54:34.338Z,7.20
2018-08-24T13:57:03.058Z,9.23
2018-08-24T13:59:31.559Z,6.43
2018-08-24T14:02:00.009Z,5.70
2018-08-24T14:04:28.438Z,6.33
2018-08-24T14:06:56.932Z,5.53
2018-08-24T14:09:25.353Z,6.43
2018-08-24T14:11:53.838Z,5.67
2018-08-24T14:14:22.232Z,6.90
2018-08-24T14:16:50.640Z,6.17
2018-08-24T14:19:19.101Z,7.20
2018-08-24T14:21:47.549Z,7.20
2018-08-24T14:24:16.003Z,8.50
2018-08-24T14:26:44.475Z,6.77
2018-08-24T14:29:12.937Z,7.83
2018-08-24T14:31:41.469Z,7.43
2018-08-24T14:34:09.864Z,6.13
2018-08-24T14:36:38.277Z,6.73
2018-08-24T14:39:08.385Z,6.53
2018-08-24T14:41:36.807Z,6.67
2018-08-24T14:44:05.508Z,7.93
2018-08-24T14:46:33.934Z,8.60
2018-08-24T14:49:02.385Z,7.17
2018-08-24T14:51:30.845Z,6.30
2018-08-24T14:53:59.358Z,7.43
2018-08-24T14:56:27.843Z,8.47
2018-08-24T14:58:56.438Z,8.37
2018-08-24T15:01:24.851Z,5.93
2018-08-24T15:03:53.281Z,7.53
2018-08-24T15:06:21.753Z,8.50
2018-08-24T15:08:50.192Z,8.20
2018-08-24T15:11:18.637Z,7.57
2018-08-24T15:13:47.065Z,6.53
2018-08-24T15:16:15.484Z,6.97
2018-08-24T15:18:43.889Z,6.20
2018-08-24T15:21:12.328Z,8.40
2018-08-24T15:23:40.772Z,6.93
2018-08-24T15:26:09.183Z,5.83
2018-08-24T15:28:37.624Z,5.97
2018-08-24T15:31:06.068Z,8.00
2018-08-24T15:33:34.491Z,5.80
2018-08-24T15:36:02.915Z,5.93
2018-08-24T15:38:31.377Z,6.10
2018-08-24T15:40:59.804Z,6.63
2018-08-24T15:43:28.220Z,5.27
2018-08-24T15:45:56.684Z,5.90
2018-08-24T15:48:25.092Z,6.30
2018-08-24T15:50:53.942Z,4.83
2018-08-24T15:53:22.365Z,7.20
2018-08-24T15:55:50.793Z,5.53
2018-08-24T15:58:19.240Z,6.50
2018-08-24T16:00:47.654Z,6.50
2018-08-24T16:03:16.084Z,6.53
2018-08-24T16:05:44.509Z,6.20
2018-08-24T16:08:12.957Z,6.03
2018-08-24T16:10:41.352Z,7.47
2018-08-24T16:13:09.779Z,6.17
2018-08-24T16:15:38.177Z,6.87
2018-08-24T16:18:11.980Z,6.50
2018-08-24T16:20:40.483Z,6.63
2018-08-24T16:23:08.936Z,6.37
2018-08-24T16:25:37.360Z,5.93
2018-08-24T16:28:05.791Z,5.90
2018-08-24T16:30:34.204Z,7.30
2018-08-24T16:33:02.649Z,6.13
2018-08-24T16:35:31.192Z,5.70
2018-08-24T16:37:59.645Z,6.10
2018-08-24T16:40:28.064Z,5.90
2018-08-24T16:42:56.588Z,7.70
2018-08-24T16:45:25.040Z,7.47
2018-08-24T16:47:53.525Z,8.77
2018-08-24T16:50:21.945Z,7.37
2018-08-24T16:52:50.421Z,5.37
2018-08-24T16:55:18.895Z,7.47
2018-08-24T16:57:48.235Z,6.47
2018-08-24T17:00:16.680Z,5.70
2018-08-24T17:02:45.088Z,7.73
2018-08-24T17:05:13.520Z,6.20
2018-08-24T17:07:41.920Z,9.87
2018-08-24T17:10:10.397Z,9.40
2018-08-24T17:12:38.912Z,7.73
2018-08-24T17:15:07.315Z,9.83
2018-08-24T17:17:35.752Z,9.53
2018-08-24T17:20:04.318Z,6.13
2018-08-24T17:22:32.748Z,6.10
2018-08-24T17:25:01.196Z,7.40
2018-08-24T17:27:29.609Z,6.57
2018-08-24T17:29:58.071Z,11.50
2018-08-24T17:32:26.495Z,6.90
2018-08-24T17:34:54.936Z,7.30
2018-08-24T17:37:23.398Z,7.10
2018-08-24T17:39:53.900Z,6.80
2018-08-24T17:42:22.324Z,7.90
2018-08-24T17:44:50.746Z,9.17
2018-08-24T17:47:19.183Z,7.40
2018-08-24T17:49:47.577Z,8.70
2018-08-24T17:52:16.011Z,7.70
2018-08-24T17:54:44.441Z,7.23
2018-08-24T17:57:12.873Z,6.37
2018-08-24T17:59:41.268Z,6.83
2018-08-24T18:02:09.763Z,9.53
2018-08-24T18:04:38.188Z,8.67
2018-08-24T18:07:06.666Z,7.03
2018-08-24T18:09:35.138Z,7.20
2018-08-24T18:12:03.575Z,8.13
2018-08-24T18:14:31.984Z,6.80
2018-08-24T18:17:00.384Z,6.90
2018-08-24T18:19:28.835Z,6.13
2018-08-24T18:21:57.262Z,6.77
2018-08-24T18:24:25.778Z,8.13
2018-08-24T18:26:54.174Z,7.00
2018-08-24T18:29:24.469Z,6.33
2018-08-24T18:31:52.887Z,10.60
2018-08-24T18:34:21.333Z,7.47
2018-08-24T18:36:49.802Z,8.50
2018-08-24T18:39:18.232Z,7.10
2018-08-24T18:41:46.635Z,7.17
2018-08-24T18:44:15.105Z,7.50
2018-08-24T18:46:43.521Z,7.63
2018-08-24T18:49:11.959Z,7.10
2018-08-24T18:51:40.368Z,6.93
2018-08-24T18:54:08.863Z,7.53
2018-08-24T18:56:37.310Z,6.60
2018-08-24T18:59:05.775Z,6.87
2018-08-24T19:01:34.184Z,8.53
2018-08-24T19:04:02.687Z,8.67
2018-08-24T19:06:31.097Z,11.07
2018-08-24T19:08:59.553Z,8.63
2018-08-24T19:11:33.409Z,8.20
2018-08-24T19:14:01.864Z,12.13
2018-08-24T19:16:30.301Z,8.00
2018-08-24T19:19:04.350Z,7.87
2018-08-24T19:21:38.080Z,10.67
2018-08-24T19:24:06.544Z,8.80
2018-08-24T19:26:35.032Z,8.47
2018-08-24T19:29:08.735Z,9.20
2018-08-24T19:31:44.755Z,9.60
2018-08-24T19:34:13.417Z,8.60
2018-08-24T19:36:41.829Z,9.90
2018-08-24T19:39:12.527Z,10.50
2018-08-24T19:41:46.308Z,9.47
2018-08-24T19:44:14.919Z,9.23
2018-08-24T19:46:43.376Z,11.00
2018-08-24T19:49:18.933Z,8.83
2018-08-24T19:51:47.352Z,8.87
2018-08-24T19:54:16.535Z,8.57
2018-08-24T19:56:45.092Z,9.07
2018-08-24T19:59:15.027Z,10.93
2018-08-24T20:01:43.448Z,10.47
2018-08-24T20:04:11.857Z,10.07
2018-08-24T20:06:45.545Z,11.60
2018-08-24T20:09:19.209Z,9.90
2018-08-24T20:11:49.016Z,9.23
2018-08-24T20:14:21.666Z,9.10
2018-08-24T20:16:55.525Z,10.43
2018-08-24T20:19:23.960Z,8.50
2018-08-24T20:21:52.399Z,10.70
2018-08-24T20:24:21.054Z,8.40
2018-08-24T20:26:49.950Z,11.60
2018-08-24T20:29:18.920Z,12.00
2018-08-24T20:31:47.369Z,11.77
2018-08-24T20:34:15.863Z,14.50
2018-08-24T20:36:44.592Z,11.27
2018-08-24T20:39:13.003Z,9.27
2018-08-24T20:41:41.679Z,9.40
2018-08-24T20:44:10.136Z,11.50
2018-08-24T20:46:38.572Z,9.80
2018-08-24T20:49:07.010Z,11.67
2018-08-24T20:51:35.444Z,9.60
2018-08-24T20:54:03.906Z,9.57
2018-08-24T20:59:48.243Z,12.60
2018-08-24T21:02:16.667Z,11.40
2018-08-24T21:04:45.120Z,13.30
2018-08-24T21:07:13.545Z,11.03
2018-08-24T21:09:42.015Z,11.97
2018-08-24T21:12:10.447Z,10.77
2018-08-24T21:14:38.917Z,10.70
2018-08-24T21:17:07.334Z,8.90
2018-08-24T21:19:35.785Z,18.20
2018-08-24T21:22:04.247Z,13.33
2018-08-24T21:24:32.685Z,11.93
2018-08-24T21:27:01.143Z,8.83
2018-08-24T21:29:29.604Z,11.67
2018-08-24T21:31:58.014Z,9.80
2018-08-24T21:34:26.460Z,14.57
2018-08-24T21:36:54.858Z,9.43
2018-08-24T21:39:23.312Z,9.53
2018-08-24T21:41:51.772Z,10.90
2018-08-24T21:44:20.255Z,10.63
2018-08-24T21:46:48.656Z,12.53
2018-08-24T21:49:17.095Z,11.90
2018-08-24T21:51:45.509Z,10.40
2018-08-24T21:54:13.956Z,9.83
2018-08-24T21:56:42.375Z,10.93
2018-08-24T21:59:10.814Z,8.30
2018-08-24T22:01:39.219Z,8.30
2018-08-24T22:04:07.764Z,9.43
2018-08-24T22:06:36.175Z,8.63
2018-08-24T22:09:07.247Z,10.40
2018-08-24T22:11:35.699Z,8.83
2018-08-24T22:14:04.132Z,8.70
2018-08-24T22:16:32.543Z,10.60
2018-08-24T22:19:01.101Z,10.77
2018-08-24T22:21:29.513Z,10.67
2018-08-24T22:23:57.953Z,8.33
2018-08-24T22:26:26.379Z,8.67
2018-08-24T22:28:54.828Z,8.40
2018-08-24T22:31:23.252Z,7.83
2018-08-24T22:33:51.660Z,7.63
2018-08-24T22:36:20.143Z,8.37
2018-08-24T22:38:48.559Z,9.30
2018-08-24T22:41:18.843Z,12.30
2018-08-24T22:43:47.249Z,9.93
2018-08-24T22:46:15.691Z,11.33
2018-08-24T22:48:44.096Z,12.07
2018-08-24T22:51:12.524Z,12.17
2018-08-24T22:53:40.945Z,12.77
2018-08-24T22:56:09.371Z,9.83
2018-08-24T22:58:37.787Z,9.00
2018-08-24T23:01:06.700Z,8.73
2018-08-24T23:03:35.110Z,12.10
2018-08-24T23:06:03.563Z,8.60
2018-08-24T23:08:31.960Z,9.33
2018-08-24T23:11:00.735Z,11.43
2018-08-24T23:13:30.195Z,10.03
2018-08-24T23:15:58.628Z,9.10
2018-08-24T23:18:27.064Z,9.07
2018-08-24T23:20:55.487Z,13.43
2018-08-24T23:23:23.926Z,10.20
2018-08-24T23:25:52.333Z,12.63
2018-08-24T23:28:20.769Z,8.97
2018-08-24T23:30:49.186Z,11.50
2018-08-24T23:33:17.644Z,9.50
2018-08-24T23:35:46.096Z,11.37
2018-08-24T23:38:14.524Z,10.00
2018-08-24T23:40:42.945Z,10.37
2018-08-24T23:43:11.403Z,8.43
2018-08-24T23:45:39.867Z,8.90
2018-08-24T23:48:08.291Z,10.00
2018-08-24T23:50:36.735Z,9.80
2018-08-24T23:53:05.203Z,8.40
2018-08-24T23:55:33.644Z,8.00
2018-08-24T23:58:02.089Z,8.27
